Time;durP1;ratioP1;P1;durP2;ratioP2;P2;SDS_P1;SDS_P2;PMS_P1;PMS_P2;Temp;Humidity;BMP_temperature;BMP_pressure;BME280_temperature;BME280_humidity;BME280_pressure;Samples;Min_cycle;Max_cycle;Signal;HPM_P1;HPM_P2
2022/12/11 00:01:50;;;;;;;132.07;41.37;;;;;;;-145.18;100.00;46720.94;5011290;28;20040;-76
2022/12/11 00:04:15;;;;;;;125.77;39.40;;;;;;;-145.18;100.00;46717.03;5029182;28;20058;-76
2022/12/11 00:06:41;;;;;;;128.50;41.37;;;;;;;-145.18;100.00;46719.00;5011515;28;20124;-76
2022/12/11 00:09:07;;;;;;;121.47;39.37;;;;;;;-145.18;100.00;46719.00;5029382;28;20490;-76
2022/12/11 00:11:32;;;;;;;126.53;40.23;;;;;;;-145.18;100.00;46720.94;5029090;28;20033;-76
2022/12/11 00:13:57;;;;;;;128.80;39.93;;;;;;;-145.18;100.00;46722.91;5029209;28;20141;-76
2022/12/11 00:16:23;;;;;;;123.03;39.07;;;;;;;-145.18;100.00;46717.03;5029115;28;20441;-76
2022/12/11 00:18:48;;;;;;;128.87;43.47;;;;;;;-145.18;100.00;46713.13;5029470;28;20033;-76
2022/12/11 00:21:14;;;;;;;118.80;39.80;;;;;;;-145.18;100.00;46719.00;5032767;28;20065;-77
2022/12/11 00:23:40;;;;;;;128.33;39.50;;;;;;;-145.18;100.00;46720.94;5015164;28;20478;-76
2022/12/11 00:26:08;;;;;;;124.00;37.83;;;;;;;-145.18;100.00;46719.00;5032537;28;20494;-76
2022/12/11 00:28:35;;;;;;;123.77;39.20;;;;;;;-145.18;100.00;46717.03;5032909;28;20273;-76
2022/12/11 00:31:05;;;;;;;124.07;39.37;;;;;;;-145.18;100.00;46719.00;5015110;28;20274;-76
2022/12/11 00:33:31;;;;;;;123.00;38.00;;;;;;;-145.18;100.00;46722.91;5032676;28;20279;-76
2022/12/11 00:35:56;;;;;;;123.10;41.33;;;;;;;-145.18;100.00;46720.94;5032165;28;20294;-76
2022/12/11 00:38:23;;;;;;;118.83;40.00;;;;;;;-145.18;100.00;46724.84;5031990;28;20041;-76
2022/12/11 00:40:48;;;;;;;111.03;39.03;;;;;;;-145.18;100.00;46719.00;5032767;28;20064;-76
2022/12/11 00:43:14;;;;;;;120.07;39.63;;;;;;;-145.18;100.00;46722.91;5032095;28;20760;-76
2022/12/11 00:45:42;;;;;;;117.27;38.70;;;;;;;-145.18;100.00;46719.00;5032557;28;20033;-76
2022/12/11 00:48:08;;;;;;;115.00;39.70;;;;;;;-145.18;100.00;46720.94;5032372;28;20282;-76
2022/12/11 00:50:34;;;;;;;109.40;37.30;;;;;;;-145.18;100.00;46720.94;5032313;28;20361;-76
2022/12/11 00:53:00;;;;;;;122.30;38.50;;;;;;;-145.18;100.00;46722.91;5014554;28;20279;-76
2022/12/11 00:55:27;;;;;;;109.07;35.47;;;;;;;-145.18;100.00;46719.00;5032075;28;20344;-76
2022/12/11 00:57:53;;;;;;;111.80;38.63;;;;;;;-145.18;100.00;46719.00;5032210;28;20294;-76
2022/12/11 01:00:19;;;;;;;110.57;38.03;;;;;;;-145.18;100.00;46724.84;5032079;28;20041;-76
2022/12/11 01:02:44;;;;;;;116.70;38.90;;;;;;;-145.18;100.00;46719.00;5031386;28;20076;-76
2022/12/11 01:05:10;;;;;;;109.90;38.87;;;;;;;-145.18;100.00;46720.94;5032118;28;20045;-76
2022/12/11 01:07:35;;;;;;;120.93;40.57;;;;;;;-145.18;100.00;46719.00;5031944;28;20043;-76
2022/12/11 01:12:44;;;;;;;109.33;36.33;;;;;;;-145.18;100.00;46720.94;5032088;28;20469;-76
2022/12/11 01:15:10;;;;;;;109.50;37.43;;;;;;;-145.18;100.00;46719.00;5031630;28;20278;-76
2022/12/11 01:17:36;;;;;;;116.97;38.90;;;;;;;-145.18;100.00;46720.94;5014220;28;20049;-76
2022/12/11 01:20:03;;;;;;;119.07;40.63;;;;;;;-145.18;100.00;46720.94;5031904;28;20043;-75
2022/12/11 01:22:28;;;;;;;113.97;38.80;;;;;;;-145.18;100.00;46719.00;5013910;28;20486;-75
2022/12/11 01:24:54;;;;;;;115.70;39.87;;;;;;;-145.18;100.00;46717.03;5031937;28;20282;-75
2022/12/11 01:27:19;;;;;;;106.07;37.90;;;;;;;-145.18;100.00;46722.91;5031615;28;20045;-76
2022/12/11 01:29:44;;;;;;;122.97;38.73;;;;;;;-145.18;100.00;46717.03;5031831;28;20037;-75
2022/12/11 01:32:10;;;;;;;108.70;37.23;;;;;;;-145.18;100.00;46719.00;5030214;28;20045;-76
2022/12/11 01:34:35;;;;;;;108.80;37.03;;;;;;;-145.18;100.00;46720.94;5014338;28;20116;-76
2022/12/11 01:37:00;;;;;;;97.23;34.10;;;;;;;-145.18;100.00;46722.91;5031462;28;20439;-76
2022/12/11 01:39:26;;;;;;;98.70;37.07;;;;;;;-145.18;100.00;46717.03;5013660;28;20060;-75
2022/12/11 01:41:59;;;;;;;93.77;34.23;;;;;;;-145.18;100.00;46715.09;5013836;28;20041;-76
2022/12/11 01:44:24;;;;;;;88.57;34.33;;;;;;;-145.18;100.00;46722.91;5031380;28;20060;-76
2022/12/11 01:46:50;;;;;;;81.23;31.47;;;;;;;-145.18;100.00;46719.00;5031541;28;20496;-76
2022/12/11 01:49:17;;;;;;;69.30;29.80;;;;;;;-145.18;100.00;46719.00;5031455;28;20041;-76
2022/12/11 01:52:05;;;;;;;63.87;27.73;;;;;;;-145.18;100.00;46719.00;5031306;28;20079;-76
2022/12/11 01:54:30;;;;;;;65.90;27.67;;;;;;;-145.18;100.00;46719.00;5031371;28;20365;-76
2022/12/11 01:57:00;;;;;;;68.83;29.17;;;;;;;-145.18;100.00;46720.94;5031076;28;21087;-75
2022/12/11 01:59:29;;;;;;;65.50;26.25;;;;;;;-145.18;100.00;46724.84;5031097;28;20271;-76
2022/12/11 02:02:04;;;;;;;65.30;28.97;;;;;;;-145.18;100.00;46724.84;5031078;28;20079;-76
2022/12/11 02:04:31;;;;;;;65.47;29.25;;;;;;;-145.18;100.00;46720.94;5030771;28;20698;-75
2022/12/11 02:06:57;;;;;;;59.17;27.27;;;;;;;-145.18;100.00;46724.84;5031068;28;20045;-75
2022/12/11 02:09:25;;;;;;;62.53;27.70;;;;;;;-145.18;100.00;46724.84;5030823;28;20270;-76
2022/12/11 02:12:10;;;;;;;61.57;27.47;;;;;;;-145.18;100.00;46720.94;5030926;28;20022;-76
2022/12/11 02:14:41;;;;;;;54.03;26.40;;;;;;;-145.18;100.00;46726.81;5011433;28;20329;-76
2022/12/11 02:17:20;;;;;;;56.43;26.27;;;;;;;-145.18;100.00;46724.84;5010811;28;20353;-75
2022/12/11 02:20:02;;;;;;;68.63;28.67;;;;;;;-145.18;100.00;46722.91;5026409;28;20282;-75
2022/12/11 02:23:09;;;;;;;58.50;26.43;;;;;;;-145.18;100.00;46726.81;5030445;28;20322;-75
2022/12/11 02:25:49;;;;;;;60.25;26.63;;;;;;;-145.18;100.00;46728.75;5030765;28;20271;-75
2022/12/11 02:28:42;;;;;;;58.23;27.13;;;;;;;-145.18;100.00;46724.84;5030218;28;20035;-75
2022/12/11 02:31:36;;;;;;;58.13;25.00;;;;;;;-145.18;100.00;46728.75;5024107;28;20809;-75
2022/12/11 02:34:13;;;;;;;55.83;26.57;;;;;;;-145.18;100.00;46724.84;5002414;28;20270;-75
2022/12/11 02:36:43;;;;;;;54.07;26.60;;;;;;;-145.18;100.00;46732.66;5030006;28;20329;-76
2022/12/11 02:39:12;;;;;;;56.60;26.13;;;;;;;-145.18;100.00;46728.75;5030524;28;20274;-76
2022/12/11 02:41:41;;;;;;;51.73;24.67;;;;;;;-145.18;100.00;46730.72;5011444;28;20274;-76
2022/12/11 02:44:09;;;;;;;53.53;26.30;;;;;;;-145.18;100.00;46728.75;5023100;28;20554;-76
2022/12/11 02:46:36;;;;;;;53.97;26.97;;;;;;;-145.18;100.00;46728.75;5029979;28;20278;-75
2022/12/11 02:49:04;;;;;;;61.13;26.17;;;;;;;-145.18;100.00;46732.66;5030306;28;20274;-76
2022/12/11 02:51:35;;;;;;;55.57;25.80;;;;;;;-145.18;100.00;46732.66;5030200;28;20255;-75
2022/12/11 02:54:01;;;;;;;50.80;22.20;;;;;;;-145.18;100.00;46736.56;5029960;28;20297;-76
2022/12/11 02:56:38;;;;;;;46.53;21.37;;;;;;;-145.18;100.00;46736.56;5012415;28;20286;-76
2022/12/11 02:59:11;;;;;;;46.57;21.63;;;;;;;-145.18;100.00;46734.63;5029917;28;20731;-76
2022/12/11 03:01:37;;;;;;;49.67;22.60;;;;;;;-145.18;100.00;46736.56;5295106;22;20303;-77
2022/12/11 03:04:02;;;;;;;51.03;22.53;;;;;;;-145.18;100.00;46734.63;5021026;28;20045;-76
2022/12/11 03:06:35;;;;;;;52.83;23.07;;;;;;;-145.18;100.00;46738.53;4997909;28;20112;-77
2022/12/11 03:09:01;;;;;;;49.65;23.17;;;;;;;-145.18;100.00;46736.56;5029374;28;20061;-76
2022/12/11 03:11:27;;;;;;;47.27;22.17;;;;;;;-145.18;100.00;46736.56;5030514;28;20029;-76
2022/12/11 03:13:53;;;;;;;55.10;23.73;;;;;;;-145.18;100.00;46740.47;5030070;28;20275;-76
2022/12/11 03:16:38;;;;;;;47.33;22.23;;;;;;;-145.18;100.00;46738.53;5030260;28;20389;-76
2022/12/11 03:19:27;;;;;;;52.78;22.20;;;;;;;-145.18;100.00;46734.63;5030058;28;20267;-77
2022/12/11 03:22:02;;;;;;;46.27;21.17;;;;;;;-145.18;100.00;46738.53;5029914;28;20492;-76
2022/12/11 03:24:37;;;;;;;51.20;22.80;;;;;;;-145.18;100.00;46742.44;5030101;28;20365;-76
2022/12/11 03:27:15;;;;;;;39.83;17.75;;;;;;;-145.18;100.00;46742.44;5030007;28;20275;-76
2022/12/11 03:29:58;;;;;;;52.53;24.23;;;;;;;-145.18;100.00;46740.47;5030242;28;20091;-76
2022/12/11 03:32:28;;;;;;;46.17;22.87;;;;;;;-145.18;100.00;46740.47;5030258;28;20627;-76
2022/12/11 03:35:06;;;;;;;53.03;22.10;;;;;;;-145.18;100.00;46740.47;5029722;28;20362;-77
2022/12/11 03:37:36;;;;;;;51.87;22.63;;;;;;;-145.18;100.00;46740.47;5029713;28;20307;-76
2022/12/11 03:40:08;;;;;;;55.37;22.87;;;;;;;-145.18;100.00;46738.53;5030173;28;20301;-76
2022/12/11 03:42:34;;;;;;;51.93;23.50;;;;;;;-145.18;100.00;46740.47;5029748;28;20274;-76
2022/12/11 03:45:02;;;;;;;55.30;24.10;;;;;;;-145.18;100.00;46738.53;5029588;28;20338;-76
2022/12/11 03:47:28;;;;;;;56.67;23.47;;;;;;;-145.18;100.00;46742.44;5029672;28;20274;-76
2022/12/11 03:49:55;;;;;;;56.08;23.73;;;;;;;-145.18;100.00;46740.47;5029747;28;20766;-76
2022/12/11 03:52:22;;;;;;;55.57;24.70;;;;;;;-145.18;100.00;46740.47;5012078;28;20072;-76
2022/12/11 03:54:49;;;;;;;57.70;26.30;;;;;;;-145.18;100.00;46742.44;5031584;28;20304;-76
2022/12/11 03:57:18;;;;;;;56.55;25.13;;;;;;;-145.18;100.00;46738.53;5033284;28;20508;-76
2022/12/11 03:59:45;;;;;;;57.13;24.57;;;;;;;-145.18;100.00;46742.44;5033381;28;20040;-77
2022/12/11 04:02:10;;;;;;;61.40;26.77;;;;;;;-145.18;100.00;46738.53;5022681;28;20295;-76
2022/12/11 04:04:41;;;;;;;64.90;27.80;;;;;;;-145.18;100.00;46744.38;5014114;28;20045;-77
2022/12/11 04:07:07;;;;;;;63.33;26.67;;;;;;;-145.18;100.00;46748.28;5013766;28;20038;-76
2022/12/11 04:09:33;;;;;;;62.03;25.80;;;;;;;-145.18;100.00;46740.47;5013577;28;20283;-77
2022/12/11 04:11:58;;;;;;;58.10;25.93;;;;;;;-145.18;100.00;46746.34;5013547;28;20164;-76
2022/12/11 04:17:08;;;;;;;52.93;23.70;;;;;;;-145.18;100.00;46742.44;5013385;28;20167;-76
2022/12/11 04:25:04;;;;;;;55.07;25.40;;;;;;;-145.18;100.00;46742.44;4994176;28;20271;-77
2022/12/11 04:30:16;;;;;;;62.80;28.13;;;;;;;-145.18;100.00;46738.53;4994274;28;20264;-76
2022/12/11 04:32:42;;;;;;;64.10;28.63;;;;;;;-145.18;100.00;46738.53;4999285;28;20272;-76
2022/12/11 04:35:08;;;;;;;67.90;28.80;;;;;;;-145.18;100.00;46736.56;5013420;28;20290;-76
2022/12/11 04:37:34;;;;;;;67.53;28.93;;;;;;;-145.18;100.00;46736.56;5013067;28;20108;-76
2022/12/11 04:40:00;;;;;;;63.70;28.50;;;;;;;-145.18;100.00;46736.56;4995442;28;20850;-76
2022/12/11 04:42:25;;;;;;;69.07;31.63;;;;;;;-145.18;100.00;46734.63;5013160;28;20423;-76
2022/12/11 04:44:50;;;;;;;61.30;29.00;;;;;;;-145.18;100.00;46732.66;5012742;28;20037;-76
2022/12/11 04:47:16;;;;;;;67.27;30.17;;;;;;;-145.18;100.00;46736.56;5012892;28;20041;-76
2022/12/11 04:49:41;;;;;;;71.60;30.70;;;;;;;-145.18;100.00;46738.53;5013174;28;20037;-76
2022/12/11 04:52:07;;;;;;;64.57;29.33;;;;;;;-145.18;100.00;46736.56;4995508;28;20093;-76
2022/12/11 04:54:32;;;;;;;61.97;27.17;;;;;;;-145.18;100.00;46738.53;5013128;28;20109;-76
2022/12/11 04:56:58;;;;;;;62.30;27.93;;;;;;;-145.18;100.00;46740.47;5012399;28;20045;-77
2022/12/11 04:59:23;;;;;;;64.37;26.37;;;;;;;-145.18;100.00;46742.44;5012945;28;20037;-76
2022/12/11 05:01:48;;;;;;;54.97;25.50;;;;;;;-145.18;100.00;46736.56;4994514;28;20038;-77
2022/12/11 05:04:14;;;;;;;60.07;23.87;;;;;;;-145.18;100.00;46740.47;5012653;28;20057;-77
2022/12/11 05:06:39;;;;;;;54.83;23.87;;;;;;;-145.18;100.00;46736.56;5012644;28;20506;-77
2022/12/11 05:09:05;;;;;;;50.07;22.93;;;;;;;-145.18;100.00;46742.44;5011954;28;20037;-76
2022/12/11 05:11:30;;;;;;;55.43;24.13;;;;;;;-145.18;100.00;46738.53;5012850;28;20074;-76
2022/12/11 05:13:55;;;;;;;52.90;23.40;;;;;;;-145.18;100.00;46744.38;5012275;28;20058;-76
2022/12/11 05:16:21;;;;;;;50.50;22.67;;;;;;;-145.18;100.00;46738.53;5012485;28;20041;-77
2022/12/11 05:18:46;;;;;;;49.13;22.80;;;;;;;-145.18;100.00;46742.44;5011808;28;20038;-77
2022/12/11 05:21:13;;;;;;;52.03;23.50;;;;;;;-145.18;100.00;46742.44;4995014;28;20121;-77
2022/12/11 05:23:39;;;;;;;48.33;22.80;;;;;;;-145.18;100.00;46740.47;4994464;28;20034;-77
2022/12/11 05:26:09;;;;;;;48.87;23.13;;;;;;;-145.18;100.00;46740.47;5012364;28;20357;-77
2022/12/11 05:28:37;;;;;;;51.40;24.88;;;;;;;-145.18;100.00;46742.44;5012038;28;20120;-77
2022/12/11 05:31:14;;;;;;;46.08;23.17;;;;;;;-145.18;100.00;46734.63;5012161;28;20033;-77
2022/12/11 05:33:40;;;;;;;50.08;23.58;;;;;;;-145.18;100.00;46732.66;5012230;28;20034;-77
2022/12/11 05:36:06;;;;;;;44.07;21.83;;;;;;;-145.18;100.00;46736.56;5012214;28;20183;-77
2022/12/11 05:38:32;;;;;;;47.87;23.73;;;;;;;-145.18;100.00;46732.66;5011830;28;20033;-76
2022/12/11 05:41:03;;;;;;;47.67;25.00;;;;;;;-145.18;100.00;46728.75;5011842;28;20288;-76
2022/12/11 05:43:31;;;;;;;53.57;26.23;;;;;;;-145.18;100.00;46736.56;5011941;28;20105;-77
2022/12/11 05:46:14;;;;;;;44.75;22.92;;;;;;;-145.18;100.00;46732.66;5011907;28;20279;-76
2022/12/11 05:48:40;;;;;;;43.43;22.97;;;;;;;-145.18;100.00;46732.66;5007965;28;20052;-77
2022/12/11 05:51:07;;;;;;;45.33;23.70;;;;;;;-145.18;100.00;46726.81;5008688;28;20268;-77
2022/12/11 05:53:34;;;;;;;55.83;25.37;;;;;;;-145.18;100.00;46724.84;5007555;28;20034;-77
2022/12/11 05:56:02;;;;;;;49.13;23.40;;;;;;;-145.18;100.00;46726.81;4998987;28;20361;-76
2022/12/11 05:58:27;;;;;;;51.33;22.47;;;;;;;-145.18;100.00;46724.84;5006243;28;20267;-75
2022/12/11 06:00:53;;;;;;;44.27;21.90;;;;;;;-145.18;100.00;46711.19;4993794;28;20747;-76
2022/12/11 06:03:18;;;;;;;42.07;21.77;;;;;;;-145.18;100.00;46711.19;5011163;28;20061;-76
2022/12/11 06:05:43;;;;;;;45.67;22.97;;;;;;;-145.18;100.00;46713.13;5011324;28;20045;-76
2022/12/11 06:08:09;;;;;;;46.27;21.80;;;;;;;-145.18;100.00;46711.19;5011505;28;20471;-76
2022/12/11 06:10:34;;;;;;;44.63;21.83;;;;;;;-145.18;100.00;46711.19;5011344;28;20041;-76
2022/12/11 06:13:00;;;;;;;47.33;22.50;;;;;;;-145.18;100.00;46703.38;5011085;28;20109;-76
2022/12/11 06:15:26;;;;;;;41.20;19.43;;;;;;;-145.18;100.00;46709.22;5010664;28;20041;-76
2022/12/11 06:17:51;;;;;;;39.13;21.27;;;;;;;-145.18;100.00;46693.59;4992690;28;20046;-76
2022/12/11 06:20:16;;;;;;;33.50;17.90;;;;;;;-145.18;100.00;46691.66;5011200;28;20061;-76
2022/12/11 06:22:42;;;;;;;30.83;16.77;;;;;;;-145.18;100.00;46683.84;5011136;28;20046;-76
2022/12/11 06:25:08;;;;;;;35.00;18.17;;;;;;;-145.18;100.00;46677.97;5011043;28;20104;-76
2022/12/11 06:27:33;;;;;;;37.53;20.00;;;;;;;-145.18;100.00;46672.13;4993195;28;20397;-76
2022/12/11 06:29:59;;;;;;;47.20;22.83;;;;;;;-145.18;100.00;46676.03;4993296;28;20279;-75
2022/12/11 06:32:24;;;;;;;41.57;21.53;;;;;;;-145.18;100.00;46674.06;5009261;28;20034;-76
2022/12/11 06:34:49;;;;;;;39.57;19.90;;;;;;;-145.18;100.00;46668.22;5010451;28;20033;-76
2022/12/11 06:37:15;;;;;;;44.87;23.03;;;;;;;-145.18;100.00;46666.25;4993516;28;20115;-75
2022/12/11 06:39:40;;;;;;;49.73;24.13;;;;;;;-145.18;100.00;46668.22;5004317;28;20061;-76
2022/12/11 06:42:05;;;;;;;50.23;24.50;;;;;;;-145.18;100.00;46662.34;5009055;28;20525;-75
2022/12/11 06:44:31;;;;;;;52.03;26.57;;;;;;;-145.18;100.00;46662.34;4993066;28;20125;-76
2022/12/11 06:46:56;;;;;;;48.77;24.73;;;;;;;-145.18;100.00;46662.34;4976004;28;20482;-75
2022/12/11 06:49:22;;;;;;;42.13;21.33;;;;;;;-145.18;100.00;46664.31;5009770;28;20021;-75
2022/12/11 06:51:47;;;;;;;47.20;22.63;;;;;;;-145.18;100.00;46664.31;5006596;28;20042;-75
2022/12/11 06:54:12;;;;;;;47.67;24.33;;;;;;;-145.18;100.00;46662.34;5009677;28;20069;-75
2022/12/11 06:56:38;;;;;;;47.03;24.23;;;;;;;-145.18;100.00;46666.25;5010717;28;20084;-76
2022/12/11 06:59:04;;;;;;;45.63;23.50;;;;;;;-145.18;100.00;46662.34;5010441;28;20044;-75
2022/12/11 07:01:30;;;;;;;46.77;24.53;;;;;;;-145.18;100.00;46672.13;4966150;28;20053;-75
2022/12/11 07:03:57;;;;;;;53.60;25.70;;;;;;;-145.18;100.00;46672.13;4994367;28;20085;-76
2022/12/11 07:06:23;;;;;;;47.90;24.57;;;;;;;-145.18;100.00;46676.03;5009663;28;20298;-76
2022/12/11 07:08:48;;;;;;;49.60;23.77;;;;;;;-145.18;100.00;46677.97;5000924;28;20289;-76
2022/12/11 07:11:16;;;;;;;46.90;24.07;;;;;;;-145.18;100.00;46677.97;4991273;28;20647;-76
2022/12/11 07:13:41;;;;;;;44.40;22.10;;;;;;;-145.18;100.00;46687.75;5001892;28;20048;-76
2022/12/11 07:16:09;;;;;;;45.93;23.97;;;;;;;-145.18;100.00;46697.50;4991991;28;20782;-76
2022/12/11 07:18:40;;;;;;;42.83;23.03;;;;;;;-145.18;100.00;46701.41;5010262;28;20042;-76
2022/12/11 07:21:06;;;;;;;43.40;23.03;;;;;;;-145.18;100.00;46709.22;5010505;28;20275;-76
2022/12/11 07:23:33;;;;;;;46.33;23.13;;;;;;;-145.18;100.00;46711.19;5010160;28;20279;-76
2022/12/11 07:26:03;;;;;;;45.63;23.30;;;;;;;-145.18;100.00;46715.09;5010408;28;20263;-76
2022/12/11 07:28:28;;;;;;;47.73;24.57;;;;;;;-145.18;100.00;46711.19;5024467;28;20259;-76
2022/12/11 07:30:54;;;;;;;44.13;23.40;;;;;;;-145.18;100.00;46724.84;5007282;28;20286;-76
2022/12/11 07:33:19;;;;;;;43.33;24.23;;;;;;;-145.18;100.00;46724.84;5013337;28;20080;-76
2022/12/11 07:35:44;;;;;;;44.30;23.40;;;;;;;-145.18;100.00;46715.09;4996522;28;20038;-76
2022/12/11 07:38:10;;;;;;;49.87;25.27;;;;;;;-145.18;100.00;46720.94;4981671;28;20042;-76
2022/12/11 07:40:36;;;;;;;47.50;24.93;;;;;;;-145.18;100.00;46724.84;4994788;28;20046;-76
2022/12/11 07:43:01;;;;;;;45.77;23.93;;;;;;;-145.18;100.00;46728.75;4996894;28;20030;-75
2022/12/11 07:45:27;;;;;;;46.70;24.67;;;;;;;-145.18;100.00;46715.09;5014444;28;20474;-75
2022/12/11 07:47:52;;;;;;;49.83;24.93;;;;;;;-145.18;100.00;46713.13;5013402;28;20145;-76
2022/12/11 07:50:18;;;;;;;50.57;26.80;;;;;;;-145.18;100.00;46713.13;5013647;28;20111;-75
2022/12/11 07:52:44;;;;;;;50.13;26.17;;;;;;;-145.18;100.00;46709.22;5003315;28;20121;-76
2022/12/11 07:55:09;;;;;;;48.57;24.73;;;;;;;-145.18;100.00;46711.19;5008831;28;20817;-76
2022/12/11 07:57:35;;;;;;;52.27;26.13;;;;;;;-145.18;100.00;46711.19;5006380;28;20042;-76
2022/12/11 08:00:00;;;;;;;51.77;24.83;;;;;;;-145.18;100.00;46711.19;5009790;28;20517;-76
2022/12/11 08:02:25;;;;;;;50.27;24.67;;;;;;;-145.18;100.00;46711.19;5009843;28;20046;-76
2022/12/11 08:04:51;;;;;;;46.17;24.70;;;;;;;-145.18;100.00;46715.09;5003451;28;20163;-76
2022/12/11 08:07:16;;;;;;;50.97;25.00;;;;;;;-145.18;100.00;46713.13;4990374;28;20117;-76
2022/12/11 08:09:41;;;;;;;48.30;24.93;;;;;;;-145.18;100.00;46713.13;5008793;28;20057;-76
2022/12/11 08:12:07;;;;;;;47.90;24.83;;;;;;;-145.18;100.00;46719.00;5013016;28;20045;-76
2022/12/11 08:14:32;;;;;;;44.20;22.73;;;;;;;-145.18;100.00;46715.09;4995773;28;20034;-76
2022/12/11 08:16:59;;;;;;;42.50;22.23;;;;;;;-145.18;100.00;46719.00;4979436;28;20034;-76
2022/12/11 08:19:24;;;;;;;47.57;23.97;;;;;;;-145.18;100.00;46713.13;4995628;28;20060;-75
2022/12/11 08:21:50;;;;;;;43.20;21.67;;;;;;;-145.18;100.00;46720.94;5013162;28;20271;-75
2022/12/11 08:24:19;;;;;;;43.17;22.97;;;;;;;-145.18;100.00;46715.09;5013201;28;20061;-75
2022/12/11 08:26:44;;;;;;;45.47;23.13;;;;;;;-145.18;100.00;46722.91;4995329;28;20030;-76
2022/12/11 08:29:10;;;;;;;40.13;21.47;;;;;;;-145.18;100.00;46715.09;5012851;28;21114;-76
2022/12/11 08:31:35;;;;;;;41.87;20.47;;;;;;;-145.18;100.00;46711.19;4991481;28;20069;-76
2022/12/11 08:34:00;;;;;;;40.40;20.33;;;;;;;-145.18;100.00;46728.75;5009385;28;20041;-76
2022/12/11 08:36:26;;;;;;;40.53;20.30;;;;;;;-145.18;100.00;46726.81;4976051;28;20077;-76
2022/12/11 08:38:53;;;;;;;40.20;20.63;;;;;;;-145.18;100.00;46728.75;4997869;28;20030;-76
2022/12/11 08:41:22;;;;;;;41.57;20.27;;;;;;;-145.18;100.00;46734.63;5012586;28;20100;-76
2022/12/11 08:43:48;;;;;;;41.50;20.47;;;;;;;-145.18;100.00;46738.53;4996154;28;20304;-76
2022/12/11 08:46:14;;;;;;;46.87;21.37;;;;;;;-145.18;100.00;46736.56;4993787;28;20770;-76
2022/12/11 08:48:41;;;;;;;42.23;19.07;;;;;;;-145.18;100.00;46736.56;5002226;28;20033;-76
2022/12/11 08:51:10;;;;;;;40.20;19.17;;;;;;;-145.18;100.00;46736.56;5008315;28;20414;-75
2022/12/11 08:53:35;;;;;;;35.73;17.37;;;;;;;-145.18;100.00;46726.81;5005677;28;20267;-75
2022/12/11 08:56:10;;;;;;;37.90;18.30;;;;;;;-145.18;100.00;46732.66;4994171;28;20276;-76
2022/12/11 08:58:36;;;;;;;37.58;17.38;;;;;;;-145.18;100.00;46726.81;5008320;28;20034;-75
2022/12/11 09:01:08;;;;;;;34.80;18.33;;;;;;;-145.18;100.00;46722.91;5012342;28;20546;-76
2022/12/11 09:03:35;;;;;;;39.60;17.37;;;;;;;-145.18;100.00;46720.94;5000053;28;20291;-76
2022/12/11 09:06:04;;;;;;;37.50;18.00;;;;;;;-145.18;100.00;46726.81;5004445;28;20276;-76
2022/12/11 09:08:29;;;;;;;36.57;17.73;;;;;;;-145.18;100.00;46724.84;5005991;28;20760;-76
2022/12/11 09:10:54;;;;;;;34.37;16.63;;;;;;;-145.18;100.00;46728.75;5012820;28;20271;-76
2022/12/11 09:13:20;;;;;;;36.30;17.33;;;;;;;-145.18;100.00;46724.84;4991148;28;20034;-76
2022/12/11 09:15:45;;;;;;;31.27;16.20;;;;;;;-145.18;100.00;46724.84;4990077;28;20042;-76
2022/12/11 09:18:10;;;;;;;41.10;18.37;;;;;;;-145.18;100.00;46724.84;4968909;28;20046;-76
2022/12/11 09:20:36;;;;;;;32.50;17.37;;;;;;;-145.18;100.00;46732.66;4993690;28;20116;-74
2022/12/11 09:23:01;;;;;;;35.80;18.90;;;;;;;-145.18;100.00;46726.81;5005246;28;20189;-74
2022/12/11 09:25:27;;;;;;;37.63;17.27;;;;;;;-145.18;100.00;46728.75;4985193;28;20394;-75
2022/12/11 09:27:52;;;;;;;37.90;18.10;;;;;;;-145.18;100.00;46728.75;5001599;28;20034;-75
2022/12/11 09:30:18;;;;;;;36.10;17.60;;;;;;;-145.18;100.00;46728.75;5004132;28;20411;-74
2022/12/11 09:32:43;;;;;;;35.87;16.53;;;;;;;-145.18;100.00;46734.63;5002699;28;20045;-74
2022/12/11 09:35:09;;;;;;;34.50;17.03;;;;;;;-145.18;100.00;46734.63;5006890;28;20649;-75
2022/12/11 09:37:35;;;;;;;34.10;17.17;;;;;;;-145.18;100.00;46732.66;4989562;28;20041;-74
2022/12/11 09:40:00;;;;;;;34.87;16.37;;;;;;;-145.18;100.00;46734.63;4974970;28;20280;-74
2022/12/11 09:42:49;;;;;;;38.57;17.03;;;;;;;-145.18;100.00;46726.81;4975700;28;20124;-74
2022/12/11 09:45:15;;;;;;;37.53;18.23;;;;;;;-145.18;100.00;46726.81;4986848;28;20069;-74
2022/12/11 09:47:46;;;;;;;36.93;17.87;;;;;;;-145.18;100.00;46722.91;5008032;28;20264;-74
2022/12/11 09:50:31;;;;;;;42.10;18.13;;;;;;;-145.18;100.00;46722.91;4992382;28;20264;-74
2022/12/11 09:53:01;;;;;;;36.60;17.17;;;;;;;-145.18;100.00;46720.94;4991156;28;20272;-74
2022/12/11 09:55:55;;;;;;;38.20;16.93;;;;;;;-145.18;100.00;46720.94;4992005;28;20069;-75
2022/12/11 09:58:35;;;;;;;39.20;18.33;;;;;;;-145.18;100.00;46720.94;4997048;28;20271;-74
2022/12/11 10:01:39;;;;;;;37.03;18.67;;;;;;;-145.18;100.00;46719.00;5011139;28;20275;-74
2022/12/11 10:04:38;;;;;;;39.87;18.27;;;;;;;-145.18;100.00;46715.09;4959226;28;20288;-74
2022/12/11 10:07:25;;;;;;;41.33;17.60;;;;;;;-145.18;100.00;46709.22;4991434;28;20311;-74
2022/12/11 10:10:01;;;;;;;46.83;18.48;;;;;;;-145.18;100.00;46707.28;4991663;28;20275;-74
2022/12/11 10:13:03;;;;;;;41.87;18.53;;;;;;;-145.18;100.00;46711.19;4996564;28;20041;-74
2022/12/11 10:15:53;;;;;;;38.83;17.20;;;;;;;-145.18;100.00;46709.22;5005896;28;20278;-74
2022/12/11 10:18:22;;;;;;;41.80;18.33;;;;;;;-145.18;100.00;46709.22;5010776;28;20332;-74
2022/12/11 10:20:49;;;;;;;46.37;19.00;;;;;;;-145.18;100.00;46709.22;5010932;28;20275;-74
2022/12/11 10:23:19;;;;;;;45.87;19.60;;;;;;;-145.18;100.00;46707.28;5010833;28;20282;-74
2022/12/11 10:26:04;;;;;;;44.33;20.13;;;;;;;-145.18;100.00;46703.38;5011195;28;20271;-74
2022/12/11 10:28:30;;;;;;;51.22;21.05;;;;;;;-145.18;100.00;46705.31;5009739;28;20822;-74
2022/12/11 10:30:58;;;;;;;54.47;20.47;;;;;;;-145.18;100.00;46701.41;5010587;28;20046;-74
2022/12/11 10:33:33;;;;;;;48.27;20.63;;;;;;;-145.18;100.00;46697.50;5003378;28;20104;-74
2022/12/11 10:35:58;;;;;;;50.40;20.65;;;;;;;-145.18;100.00;46699.47;4993145;28;20260;-74
2022/12/11 10:38:29;;;;;;;55.77;21.77;;;;;;;-145.18;100.00;46695.56;5009561;28;20053;-74
2022/12/11 10:41:01;;;;;;;54.83;21.53;;;;;;;-145.18;100.00;46705.31;5010594;28;20090;-74
2022/12/11 10:43:36;;;;;;;51.00;20.47;;;;;;;-145.18;100.00;46693.59;5003448;28;20268;-74
2022/12/11 10:46:02;;;;;;;52.72;21.88;;;;;;;-145.18;100.00;46701.41;4990926;28;20348;-74
2022/12/11 10:48:28;;;;;;;56.53;22.97;;;;;;;-145.18;100.00;46701.41;4990831;28;20061;-74
2022/12/11 10:51:01;;;;;;;60.13;23.10;;;;;;;-145.18;100.00;46697.50;4990990;28;20308;-74
2022/12/11 10:53:28;;;;;;;52.10;21.07;;;;;;;-145.18;100.00;46701.41;4990831;28;20117;-74
2022/12/11 10:55:56;;;;;;;56.30;23.90;;;;;;;-145.18;100.00;46695.56;4998533;28;20333;-74
2022/12/11 10:58:25;;;;;;;62.47;23.67;;;;;;;-145.18;100.00;46703.38;5004755;28;20378;-74
2022/12/11 11:01:14;;;;;;;55.20;22.37;;;;;;;-145.18;100.00;46695.56;4990453;28;20275;-74
2022/12/11 11:04:18;;;;;;;57.67;22.57;;;;;;;-145.18;100.00;46699.47;4998321;28;20283;-74
2022/12/11 11:06:43;;;;;;;50.43;22.13;;;;;;;-145.18;100.00;46703.38;5010368;28;20326;-74
2022/12/11 11:09:32;;;;;;;62.33;23.50;;;;;;;-145.18;100.00;46707.28;5003232;28;20421;-74
2022/12/11 11:11:57;;;;;;;66.53;24.23;;;;;;;-145.18;100.00;46707.28;4990313;28;20033;-74
2022/12/11 11:14:23;;;;;;;71.53;25.13;;;;;;;-145.18;100.00;46701.41;5010040;28;20636;-74